Husk mig
▼ Indhold

Isudtyndingen af polarisen her i 2008.



Side 4 af 4<<<234
16-10-2008 11:56
GLARProfilbillede★★★★☆
(1023)
Udmærket forecast, her er det aktuelle vejr 0900 UTC

CYLT 160900Z 24003KT 10SM -SN FEW015 OVC027 M19/M22 A2958

Næsten vindstille (1.5 m/sec), mere end 10 KM sigt, let sne, overskyet i 2700 fod og enkelte skyer i 1500 fod, temperatur -19 C, dugpunkt -22 C
Side 4 af 4<<<234





Deltag aktivt i debatten Isudtyndingen af polarisen her i 2008.:

Husk mig

Lignende indhold
NyhederDato
Nu får havet mest smeltevand fra polaris10-03-2011 10:49
Ny bundrekord for polarisen09-03-2011 11:48
Aldrig har der været så lidt polaris27-09-2010 14:37
Derfor smelter polarisen så hurtigt11-02-2009 06:05
Polarisen på vej mod nyt minimum29-08-2008 08:58
▲ Til toppen
Afstemning
Bør der indføres en klimaafgift på oksekød, som foreslået af Etisk Råd?

Ja

Nej

Ved ikke


Tak for støtten til driften af Klimadebat.dk.
Copyright © 2007-2016 Klimadebat.dk | Kontakt | Privatlivspolitik